sensor_id;sensor_type;location;lat;lon;timestamp;P1;durP1;ratioP1;P2;durP2;ratioP2
23812;SDS011;12087;45.190;5.688;2023-04-25T00:00:09;6.53;;;2.08;;
23812;SDS011;12087;45.190;5.688;2023-04-25T00:05:33;4.45;;;1.95;;
23812;SDS011;12087;45.190;5.688;2023-04-25T00:10:57;3.33;;;2.05;;
23812;SDS011;12087;45.190;5.688;2023-04-25T00:16:19;5.00;;;1.80;;
23812;SDS011;12087;45.190;5.688;2023-04-25T00:21:43;3.67;;;1.90;;
23812;SDS011;12087;45.190;5.688;2023-04-25T00:27:06;6.28;;;2.08;;
23812;SDS011;12087;45.190;5.688;2023-04-25T00:32:28;5.03;;;1.70;;
23812;SDS011;12087;45.190;5.688;2023-04-25T00:37:52;3.50;;;1.83;;
23812;SDS011;12087;45.190;5.688;2023-04-25T00:43:15;6.97;;;1.98;;
23812;SDS011;12087;45.190;5.688;2023-04-25T00:48:37;7.60;;;2.45;;
23812;SDS011;12087;45.190;5.688;2023-04-25T00:54:01;6.32;;;2.10;;
23812;SDS011;12087;45.190;5.688;2023-04-25T00:59:23;3.08;;;1.70;;
23812;SDS011;12087;45.190;5.688;2023-04-25T01:04:47;2.78;;;1.80;;
23812;SDS011;12087;45.190;5.688;2023-04-25T01:10:11;4.85;;;1.90;;
23812;SDS011;12087;45.190;5.688;2023-04-25T01:15:35;6.50;;;2.13;;
23812;SDS011;12087;45.190;5.688;2023-04-25T01:21:02;2.58;;;1.60;;
23812;SDS011;12087;45.190;5.688;2023-04-25T01:26:30;12.68;;;2.17;;
23812;SDS011;12087;45.190;5.688;2023-04-25T01:31:53;3.00;;;2.00;;
23812;SDS011;12087;45.190;5.688;2023-04-25T01:37:20;6.07;;;2.05;;
23812;SDS011;12087;45.190;5.688;2023-04-25T01:42:43;4.30;;;1.95;;
23812;SDS011;12087;45.190;5.688;2023-04-25T01:48:06;3.63;;;2.08;;
23812;SDS011;12087;45.190;5.688;2023-04-25T01:53:31;8.07;;;2.30;;
23812;SDS011;12087;45.190;5.688;2023-04-25T01:58:53;8.23;;;1.73;;
23812;SDS011;12087;45.190;5.688;2023-04-25T02:04:15;4.47;;;2.03;;
23812;SDS011;12087;45.190;5.688;2023-04-25T02:09:39;4.32;;;2.05;;
23812;SDS011;12087;45.190;5.688;2023-04-25T02:15:01;3.85;;;2.03;;
23812;SDS011;12087;45.190;5.688;2023-04-25T02:20:24;4.80;;;2.15;;
23812;SDS011;12087;45.190;5.688;2023-04-25T02:25:47;3.85;;;1.95;;
23812;SDS011;12087;45.190;5.688;2023-04-25T02:31:10;2.85;;;1.77;;
23812;SDS011;12087;45.190;5.688;2023-04-25T02:36:35;5.95;;;2.00;;
23812;SDS011;12087;45.190;5.688;2023-04-25T02:42:00;5.78;;;2.67;;
23812;SDS011;12087;45.190;5.688;2023-04-25T02:47:22;3.08;;;2.05;;
23812;SDS011;12087;45.190;5.688;2023-04-25T02:52:45;4.07;;;2.13;;
23812;SDS011;12087;45.190;5.688;2023-04-25T02:58:09;4.70;;;2.20;;
23812;SDS011;12087;45.190;5.688;2023-04-25T03:03:32;10.88;;;2.53;;
23812;SDS011;12087;45.190;5.688;2023-04-25T03:08:54;9.48;;;2.17;;
23812;SDS011;12087;45.190;5.688;2023-04-25T03:14:18;8.32;;;2.85;;
23812;SDS011;12087;45.190;5.688;2023-04-25T03:19:40;8.50;;;2.55;;
23812;SDS011;12087;45.190;5.688;2023-04-25T03:25:02;6.32;;;3.00;;
23812;SDS011;12087;45.190;5.688;2023-04-25T03:30:27;5.90;;;3.17;;
23812;SDS011;12087;45.190;5.688;2023-04-25T03:35:49;8.60;;;3.15;;
23812;SDS011;12087;45.190;5.688;2023-04-25T03:41:11;5.88;;;3.28;;
23812;SDS011;12087;45.190;5.688;2023-04-25T03:46:36;8.68;;;3.28;;
23812;SDS011;12087;45.190;5.688;2023-04-25T03:51:59;8.40;;;2.90;;
23812;SDS011;12087;45.190;5.688;2023-04-25T03:57:21;6.60;;;3.30;;
23812;SDS011;12087;45.190;5.688;2023-04-25T04:02:45;5.47;;;2.75;;
23812;SDS011;12087;45.190;5.688;2023-04-25T04:08:08;5.75;;;3.15;;
23812;SDS011;12087;45.190;5.688;2023-04-25T04:13:30;9.90;;;3.58;;
23812;SDS011;12087;45.190;5.688;2023-04-25T04:18:53;5.63;;;2.75;;
23812;SDS011;12087;45.190;5.688;2023-04-25T04:24:16;18.73;;;3.20;;
23812;SDS011;12087;45.190;5.688;2023-04-25T04:29:38;7.82;;;3.17;;
23812;SDS011;12087;45.190;5.688;2023-04-25T04:35:02;11.60;;;3.22;;
23812;SDS011;12087;45.190;5.688;2023-04-25T04:40:24;7.38;;;3.35;;
23812;SDS011;12087;45.190;5.688;2023-04-25T04:45:46;5.20;;;2.90;;
23812;SDS011;12087;45.190;5.688;2023-04-25T04:51:11;6.22;;;3.13;;
23812;SDS011;12087;45.190;5.688;2023-04-25T04:56:33;6.10;;;2.90;;
23812;SDS011;12087;45.190;5.688;2023-04-25T05:01:55;10.32;;;3.20;;
23812;SDS011;12087;45.190;5.688;2023-04-25T05:07:19;4.85;;;2.90;;
23812;SDS011;12087;45.190;5.688;2023-04-25T05:12:41;9.38;;;3.20;;
23812;SDS011;12087;45.190;5.688;2023-04-25T05:18:03;11.32;;;3.00;;
23812;SDS011;12087;45.190;5.688;2023-04-25T05:23:27;6.97;;;2.75;;
23812;SDS011;12087;45.190;5.688;2023-04-25T05:28:50;13.50;;;4.65;;
23812;SDS011;12087;45.190;5.688;2023-04-25T05:34:12;8.05;;;3.67;;
23812;SDS011;12087;45.190;5.688;2023-04-25T05:39:36;11.30;;;3.00;;
23812;SDS011;12087;45.190;5.688;2023-04-25T05:44:59;6.53;;;3.22;;
23812;SDS011;12087;45.190;5.688;2023-04-25T05:50:21;7.75;;;3.22;;
23812;SDS011;12087;45.190;5.688;2023-04-25T05:55:44;11.70;;;2.83;;
23812;SDS011;12087;45.190;5.688;2023-04-25T06:01:07;8.98;;;3.53;;
23812;SDS011;12087;45.190;5.688;2023-04-25T06:06:30;9.90;;;2.85;;
23812;SDS011;12087;45.190;5.688;2023-04-25T06:11:53;7.10;;;3.42;;
23812;SDS011;12087;45.190;5.688;2023-04-25T06:17:16;9.73;;;3.25;;
23812;SDS011;12087;45.190;5.688;2023-04-25T06:22:38;10.43;;;3.25;;
23812;SDS011;12087;45.190;5.688;2023-04-25T06:28:01;8.40;;;3.83;;
23812;SDS011;12087;45.190;5.688;2023-04-25T06:33:24;11.23;;;3.72;;
23812;SDS011;12087;45.190;5.688;2023-04-25T06:38:46;11.18;;;3.53;;
23812;SDS011;12087;45.190;5.688;2023-04-25T06:44:10;8.45;;;3.67;;
23812;SDS011;12087;45.190;5.688;2023-04-25T06:49:32;7.10;;;3.60;;
23812;SDS011;12087;45.190;5.688;2023-04-25T06:54:54;10.98;;;3.80;;
23812;SDS011;12087;45.190;5.688;2023-04-25T07:00:19;7.93;;;3.33;;
23812;SDS011;12087;45.190;5.688;2023-04-25T07:05:41;5.85;;;2.88;;
23812;SDS011;12087;45.190;5.688;2023-04-25T07:11:05;7.78;;;2.92;;
23812;SDS011;12087;45.190;5.688;2023-04-25T07:16:29;8.73;;;3.58;;
23812;SDS011;12087;45.190;5.688;2023-04-25T07:21:51;9.00;;;3.45;;
23812;SDS011;12087;45.190;5.688;2023-04-25T07:27:13;12.02;;;3.55;;
23812;SDS011;12087;45.190;5.688;2023-04-25T07:32:38;9.73;;;3.90;;
23812;SDS011;12087;45.190;5.688;2023-04-25T07:38:01;8.02;;;3.67;;
23812;SDS011;12087;45.190;5.688;2023-04-25T07:43:23;7.88;;;3.75;;
23812;SDS011;12087;45.190;5.688;2023-04-25T07:48:47;8.90;;;3.42;;
23812;SDS011;12087;45.190;5.688;2023-04-25T07:54:09;8.25;;;3.15;;
23812;SDS011;12087;45.190;5.688;2023-04-25T07:59:33;13.05;;;4.28;;
23812;SDS011;12087;45.190;5.688;2023-04-25T08:04:57;6.63;;;3.50;;
23812;SDS011;12087;45.190;5.688;2023-04-25T08:10:19;11.70;;;4.00;;
23812;SDS011;12087;45.190;5.688;2023-04-25T08:15:43;7.20;;;3.38;;
23812;SDS011;12087;45.190;5.688;2023-04-25T08:21:06;8.30;;;3.38;;
23812;SDS011;12087;45.190;5.688;2023-04-25T08:26:31;8.50;;;3.33;;
23812;SDS011;12087;45.190;5.688;2023-04-25T08:31:54;7.00;;;3.50;;
23812;SDS011;12087;45.190;5.688;2023-04-25T08:37:18;6.03;;;3.60;;
23812;SDS011;12087;45.190;5.688;2023-04-25T08:42:40;4.72;;;2.47;;
23812;SDS011;12087;45.190;5.688;2023-04-25T08:48:03;7.18;;;3.17;;
23812;SDS011;12087;45.190;5.688;2023-04-25T08:53:29;10.90;;;3.00;;
23812;SDS011;12087;45.190;5.688;2023-04-25T08:58:52;6.60;;;3.17;;
23812;SDS011;12087;45.190;5.688;2023-04-25T09:04:15;5.28;;;3.20;;
23812;SDS011;12087;45.190;5.688;2023-04-25T09:09:40;7.63;;;2.78;;
23812;SDS011;12087;45.190;5.688;2023-04-25T09:15:03;7.78;;;2.53;;
23812;SDS011;12087;45.190;5.688;2023-04-25T09:20:27;4.50;;;2.60;;
23812;SDS011;12087;45.190;5.688;2023-04-25T09:25:52;7.65;;;3.42;;
23812;SDS011;12087;45.190;5.688;2023-04-25T09:31:20;7.25;;;2.50;;
23812;SDS011;12087;45.190;5.688;2023-04-25T09:36:44;6.20;;;3.30;;
23812;SDS011;12087;45.190;5.688;2023-04-25T09:42:08;7.00;;;3.00;;
23812;SDS011;12087;45.190;5.688;2023-04-25T09:47:31;8.50;;;3.20;;
23812;SDS011;12087;45.190;5.688;2023-04-25T09:53:02;6.22;;;2.70;;
23812;SDS011;12087;45.190;5.688;2023-04-25T09:58:27;7.43;;;3.13;;
23812;SDS011;12087;45.190;5.688;2023-04-25T10:03:51;3.50;;;2.20;;
23812;SDS011;12087;45.190;5.688;2023-04-25T10:09:18;6.25;;;3.08;;
23812;SDS011;12087;45.190;5.688;2023-04-25T10:14:44;6.32;;;2.65;;
23812;SDS011;12087;45.190;5.688;2023-04-25T10:20:08;4.88;;;2.65;;
23812;SDS011;12087;45.190;5.688;2023-04-25T10:25:31;6.60;;;2.17;;
23812;SDS011;12087;45.190;5.688;2023-04-25T10:30:58;10.98;;;2.75;;
23812;SDS011;12087;45.190;5.688;2023-04-25T10:36:21;7.93;;;2.55;;
23812;SDS011;12087;45.190;5.688;2023-04-25T10:41:47;4.65;;;2.50;;
23812;SDS011;12087;45.190;5.688;2023-04-25T10:47:15;6.28;;;3.03;;
23812;SDS011;12087;45.190;5.688;2023-04-25T10:52:56;4.88;;;2.88;;
23812;SDS011;12087;45.190;5.688;2023-04-25T10:58:36;6.50;;;2.70;;
23812;SDS011;12087;45.190;5.688;2023-04-25T11:04:04;3.97;;;2.33;;
23812;SDS011;12087;45.190;5.688;2023-04-25T11:09:26;5.47;;;2.05;;
23812;SDS011;12087;45.190;5.688;2023-04-25T11:14:48;4.50;;;2.30;;
23812;SDS011;12087;45.190;5.688;2023-04-25T11:20:13;5.68;;;2.30;;
23812;SDS011;12087;45.190;5.688;2023-04-25T11:25:36;5.13;;;2.13;;
23812;SDS011;12087;45.190;5.688;2023-04-25T11:30:58;5.80;;;2.63;;
23812;SDS011;12087;45.190;5.688;2023-04-25T11:36:22;3.60;;;1.88;;
23812;SDS011;12087;45.190;5.688;2023-04-25T11:41:46;4.80;;;2.08;;
23812;SDS011;12087;45.190;5.688;2023-04-25T11:47:08;6.10;;;2.47;;
23812;SDS011;12087;45.190;5.688;2023-04-25T11:52:39;3.78;;;2.40;;
23812;SDS011;12087;45.190;5.688;2023-04-25T11:58:01;5.43;;;2.20;;
23812;SDS011;12087;45.190;5.688;2023-04-25T12:03:24;5.85;;;2.28;;
23812;SDS011;12087;45.190;5.688;2023-04-25T12:09:02;5.32;;;2.30;;
23812;SDS011;12087;45.190;5.688;2023-04-25T12:14:26;2.88;;;1.73;;
23812;SDS011;12087;45.190;5.688;2023-04-25T12:19:49;7.57;;;1.67;;
23812;SDS011;12087;45.190;5.688;2023-04-25T12:25:13;2.92;;;1.98;;
23812;SDS011;12087;45.190;5.688;2023-04-25T12:30:55;3.42;;;1.73;;
23812;SDS011;12087;45.190;5.688;2023-04-25T12:36:19;4.20;;;2.13;;
23812;SDS011;12087;45.190;5.688;2023-04-25T12:41:42;3.20;;;1.70;;
23812;SDS011;12087;45.190;5.688;2023-04-25T12:47:05;2.83;;;1.48;;
23812;SDS011;12087;45.190;5.688;2023-04-25T12:52:28;3.55;;;1.73;;
23812;SDS011;12087;45.190;5.688;2023-04-25T12:57:51;4.85;;;2.03;;
23812;SDS011;12087;45.190;5.688;2023-04-25T13:03:13;2.58;;;1.65;;
23812;SDS011;12087;45.190;5.688;2023-04-25T13:08:36;4.20;;;2.40;;
23812;SDS011;12087;45.190;5.688;2023-04-25T13:14:00;5.80;;;2.35;;
23812;SDS011;12087;45.190;5.688;2023-04-25T13:19:23;8.60;;;2.15;;
23812;SDS011;12087;45.190;5.688;2023-04-25T13:24:45;7.88;;;2.35;;
23812;SDS011;12087;45.190;5.688;2023-04-25T13:30:09;5.35;;;2.28;;
23812;SDS011;12087;45.190;5.688;2023-04-25T13:35:32;3.97;;;2.00;;
23812;SDS011;12087;45.190;5.688;2023-04-25T13:40:55;6.18;;;1.75;;
23812;SDS011;12087;45.190;5.688;2023-04-25T13:46:19;2.58;;;1.52;;
23812;SDS011;12087;45.190;5.688;2023-04-25T13:51:41;5.57;;;2.30;;
23812;SDS011;12087;45.190;5.688;2023-04-25T13:57:03;5.18;;;1.73;;
23812;SDS011;12087;45.190;5.688;2023-04-25T14:02:27;2.80;;;1.60;;
23812;SDS011;12087;45.190;5.688;2023-04-25T14:07:49;6.32;;;2.00;;
23812;SDS011;12087;45.190;5.688;2023-04-25T14:13:11;7.45;;;1.52;;
23812;SDS011;12087;45.190;5.688;2023-04-25T14:18:35;3.83;;;2.08;;
23812;SDS011;12087;45.190;5.688;2023-04-25T14:23:57;4.97;;;1.63;;
23812;SDS011;12087;45.190;5.688;2023-04-25T14:29:19;3.05;;;1.40;;
23812;SDS011;12087;45.190;5.688;2023-04-25T14:34:43;2.55;;;1.67;;
23812;SDS011;12087;45.190;5.688;2023-04-25T14:40:05;2.60;;;1.60;;
23812;SDS011;12087;45.190;5.688;2023-04-25T14:45:30;4.45;;;2.00;;
23812;SDS011;12087;45.190;5.688;2023-04-25T14:50:54;4.78;;;1.65;;
23812;SDS011;12087;45.190;5.688;2023-04-25T14:56:16;4.05;;;1.33;;
23812;SDS011;12087;45.190;5.688;2023-04-25T15:01:38;2.35;;;1.40;;
23812;SDS011;12087;45.190;5.688;2023-04-25T15:07:02;6.35;;;1.63;;
23812;SDS011;12087;45.190;5.688;2023-04-25T15:12:25;3.05;;;1.63;;
23812;SDS011;12087;45.190;5.688;2023-04-25T15:17:48;6.93;;;1.50;;
23812;SDS011;12087;45.190;5.688;2023-04-25T15:23:12;3.65;;;1.63;;
23812;SDS011;12087;45.190;5.688;2023-04-25T15:28:34;3.83;;;1.50;;
23812;SDS011;12087;45.190;5.688;2023-04-25T15:33:56;3.88;;;1.65;;
23812;SDS011;12087;45.190;5.688;2023-04-25T15:39:20;6.88;;;2.25;;
23812;SDS011;12087;45.190;5.688;2023-04-25T15:44:42;8.18;;;2.53;;
23812;SDS011;12087;45.190;5.688;2023-04-25T15:50:06;5.85;;;1.92;;
23812;SDS011;12087;45.190;5.688;2023-04-25T15:55:31;4.85;;;1.55;;
23812;SDS011;12087;45.190;5.688;2023-04-25T16:00:53;3.17;;;1.50;;
23812;SDS011;12087;45.190;5.688;2023-04-25T16:06:16;5.82;;;1.67;;
23812;SDS011;12087;45.190;5.688;2023-04-25T16:11:44;2.88;;;1.45;;
23812;SDS011;12087;45.190;5.688;2023-04-25T16:17:06;10.38;;;1.75;;
23812;SDS011;12087;45.190;5.688;2023-04-25T16:22:28;7.03;;;2.00;;
23812;SDS011;12087;45.190;5.688;2023-04-25T16:27:52;5.60;;;1.65;;
23812;SDS011;12087;45.190;5.688;2023-04-25T16:33:14;3.85;;;1.63;;
23812;SDS011;12087;45.190;5.688;2023-04-25T16:38:37;5.65;;;1.45;;
23812;SDS011;12087;45.190;5.688;2023-04-25T16:44:01;3.47;;;1.50;;
23812;SDS011;12087;45.190;5.688;2023-04-25T16:49:25;4.28;;;2.22;;
23812;SDS011;12087;45.190;5.688;2023-04-25T16:54:48;7.53;;;1.50;;
23812;SDS011;12087;45.190;5.688;2023-04-25T17:00:12;7.03;;;2.35;;
23812;SDS011;12087;45.190;5.688;2023-04-25T17:05:35;3.08;;;1.73;;
23812;SDS011;12087;45.190;5.688;2023-04-25T17:10:58;5.90;;;1.63;;
23812;SDS011;12087;45.190;5.688;2023-04-25T17:16:21;5.07;;;2.10;;
23812;SDS011;12087;45.190;5.688;2023-04-25T17:21:44;3.13;;;1.70;;
23812;SDS011;12087;45.190;5.688;2023-04-25T17:27:09;6.10;;;1.95;;
23812;SDS011;12087;45.190;5.688;2023-04-25T17:32:36;3.78;;;1.85;;
23812;SDS011;12087;45.190;5.688;2023-04-25T17:37:58;4.68;;;1.80;;
23812;SDS011;12087;45.190;5.688;2023-04-25T17:43:20;3.60;;;1.90;;
23812;SDS011;12087;45.190;5.688;2023-04-25T17:55:11;3.10;;;1.60;;
23812;SDS011;12087;45.190;5.688;2023-04-25T18:00:43;4.47;;;2.47;;
23812;SDS011;12087;45.190;5.688;2023-04-25T18:11:53;4.78;;;1.75;;
23812;SDS011;12087;45.190;5.688;2023-04-25T18:17:15;3.47;;;1.70;;
23812;SDS011;12087;45.190;5.688;2023-04-25T18:22:39;2.65;;;1.70;;
23812;SDS011;12087;45.190;5.688;2023-04-25T18:28:02;5.63;;;1.83;;
23812;SDS011;12087;45.190;5.688;2023-04-25T18:33:24;2.97;;;2.00;;
23812;SDS011;12087;45.190;5.688;2023-04-25T18:38:48;6.10;;;2.60;;
23812;SDS011;12087;45.190;5.688;2023-04-25T18:44:14;4.18;;;2.05;;
23812;SDS011;12087;45.190;5.688;2023-04-25T18:49:36;2.63;;;1.77;;
23812;SDS011;12087;45.190;5.688;2023-04-25T18:55:00;2.95;;;1.67;;
23812;SDS011;12087;45.190;5.688;2023-04-25T19:00:30;5.18;;;1.45;;
23812;SDS011;12087;45.190;5.688;2023-04-25T19:05:52;2.90;;;1.63;;
23812;SDS011;12087;45.190;5.688;2023-04-25T19:11:16;4.47;;;1.65;;
23812;SDS011;12087;45.190;5.688;2023-04-25T19:16:40;5.15;;;1.83;;
23812;SDS011;12087;45.190;5.688;2023-04-25T19:22:02;5.43;;;1.80;;
23812;SDS011;12087;45.190;5.688;2023-04-25T19:27:26;4.03;;;1.52;;
23812;SDS011;12087;45.190;5.688;2023-04-25T19:32:48;2.78;;;1.58;;
23812;SDS011;12087;45.190;5.688;2023-04-25T19:38:10;3.90;;;1.88;;
23812;SDS011;12087;45.190;5.688;2023-04-25T19:43:41;3.63;;;1.88;;
23812;SDS011;12087;45.190;5.688;2023-04-25T19:49:07;4.03;;;1.85;;
23812;SDS011;12087;45.190;5.688;2023-04-25T19:55:05;3.28;;;2.38;;
23812;SDS011;12087;45.190;5.688;2023-04-25T20:07:13;2.47;;;1.92;;
23812;SDS011;12087;45.190;5.688;2023-04-25T20:12:39;3.13;;;1.42;;
23812;SDS011;12087;45.190;5.688;2023-04-25T20:18:20;5.25;;;1.50;;
23812;SDS011;12087;45.190;5.688;2023-04-25T20:23:45;3.35;;;1.88;;
23812;SDS011;12087;45.190;5.688;2023-04-25T20:29:07;1.75;;;1.30;;
23812;SDS011;12087;45.190;5.688;2023-04-25T20:34:30;5.63;;;1.75;;
23812;SDS011;12087;45.190;5.688;2023-04-25T20:39:55;6.15;;;1.80;;
23812;SDS011;12087;45.190;5.688;2023-04-25T20:45:17;2.78;;;1.80;;
23812;SDS011;12087;45.190;5.688;2023-04-25T20:50:39;6.00;;;2.10;;
23812;SDS011;12087;45.190;5.688;2023-04-25T20:56:03;2.15;;;1.60;;
23812;SDS011;12087;45.190;5.688;2023-04-25T21:01:26;4.65;;;2.20;;
23812;SDS011;12087;45.190;5.688;2023-04-25T21:06:49;2.80;;;1.65;;
23812;SDS011;12087;45.190;5.688;2023-04-25T21:12:13;7.20;;;2.03;;
23812;SDS011;12087;45.190;5.688;2023-04-25T21:17:45;2.25;;;1.73;;
23812;SDS011;12087;45.190;5.688;2023-04-25T21:23:36;5.97;;;1.90;;
23812;SDS011;12087;45.190;5.688;2023-04-25T21:47:35;9.50;;;2.35;;
23812;SDS011;12087;45.190;5.688;2023-04-25T21:59:23;6.15;;;2.13;;
23812;SDS011;12087;45.190;5.688;2023-04-25T22:05:37;1.55;;;1.33;;
23812;SDS011;12087;45.190;5.688;2023-04-25T22:35:43;4.43;;;2.05;;
23812;SDS011;12087;45.190;5.688;2023-04-25T22:47:39;7.38;;;2.28;;
23812;SDS011;12087;45.190;5.688;2023-04-25T22:53:20;5.00;;;2.17;;
23812;SDS011;12087;45.190;5.688;2023-04-25T22:58:58;3.15;;;1.92;;
23812;SDS011;12087;45.190;5.688;2023-04-25T23:04:22;3.53;;;1.80;;
23812;SDS011;12087;45.190;5.688;2023-04-25T23:09:44;4.30;;;1.85;;
23812;SDS011;12087;45.190;5.688;2023-04-25T23:15:07;7.05;;;2.10;;
23812;SDS011;12087;45.190;5.688;2023-04-25T23:20:31;2.90;;;1.73;;
23812;SDS011;12087;45.190;5.688;2023-04-25T23:25:54;4.43;;;2.17;;
23812;SDS011;12087;45.190;5.688;2023-04-25T23:31:16;3.00;;;1.80;;
23812;SDS011;12087;45.190;5.688;2023-04-25T23:36:40;4.07;;;1.98;;
23812;SDS011;12087;45.190;5.688;2023-04-25T23:42:02;4.07;;;2.28;;
23812;SDS011;12087;45.190;5.688;2023-04-25T23:47:25;3.65;;;1.90;;
23812;SDS011;12087;45.190;5.688;2023-04-25T23:52:48;5.90;;;2.00;;
23812;SDS011;12087;45.190;5.688;2023-04-25T23:58:10;7.28;;;2.22;;
